
Distance (Route):
Temperature : -48.4°C
Humidity : 0.9%
Pressure : -1.0hPa| Receiver | Frames | First received | Last received |
|---|---|---|---|
| DJ2DS-15 | 220 | 2026-09-05 00:16:37 | 2026-09-05 01:32:22 |
| BIOWL1-15 | 30 | 2026-09-05 00:43:11 | 2026-09-05 00:56:34 |
| DL1XH-west | 16 | 2026-09-05 00:50:13 | 2026-09-05 00:54:27 |
| BIOWL9-15 | 2 | 2026-09-05 00:44:47 | 2026-09-05 00:45:49 |
| Receiver | Date | Latitude | Longitude | Direction | Speed | Altitude | Climb | Temperature | Humidity | Pressure | Voltage | Killtimer | Uptime | BKT | XDATA |
|---|---|---|---|---|---|---|---|---|---|---|---|---|---|---|---|
| DJ2DS-15 | 2026-09-05 01:32:22 | 54.64180 | 0.69269 | 115° | 146km/h | 12178m | -3.6m/s | -48.4°C | 0.9% | -1.0hPa | 2.5V | 00:00:00 | 00:00:00 | 00:00:00 | |
| DJ2DS-15 | 2026-09-05 01:31:10 | 54.65199 | 0.65926 | 114° | 108km/h | 12391m | -2.9m/s | -47.2°C | 0.7% | -1.0hPa | 2.5V | 00:00:00 | 00:00:00 | 00:00:00 | |
| DJ2DS-15 | 2026-09-05 01:30:34 | 54.65329 | 0.65357 | 111° | 128km/h | 12428m | -3.3m/s | -47.1°C | 0.7% | -1.0hPa | 2.5V | 00:00:00 | 00:00:00 | 00:00:00 | |
| DJ2DS-15 | 2026-09-05 01:29:58 | 54.65720 | 0.63699 | 104° | 126km/h | 12546m | -3.9m/s | -47.5°C | 0.7% | -1.0hPa | 2.5V | 00:00:00 | 00:00:00 | 00:00:00 | |
| DJ2DS-15 | 2026-09-05 01:29:22 | 54.66035 | 0.61756 | 103° | 139km/h | 12684m | -4.1m/s | -47.3°C | 0.7% | -1.0hPa | 2.5V | 00:00:00 | 00:00:00 | 00:00:00 | |
| DJ2DS-15 | 2026-09-05 01:28:46 | 54.66461 | 0.59755 | 107° | 128km/h | 12845m | -4.4m/s | -46.7°C | 0.7% | -1.0hPa | 2.5V | 00:00:00 | 00:00:00 | 00:00:00 | |
| DJ2DS-15 | 2026-09-05 01:28:10 | 54.66929 | 0.58034 | 109° | 122km/h | 13020m | -4.9m/s | -47.5°C | 0.8% | -1.0hPa | 2.5V | 00:00:00 | 00:00:00 | 00:00:00 | |
| DJ2DS-15 | 2026-09-05 01:26:56 | 54.67714 | 0.54816 | 115° | 106km/h | 13402m | -4.9m/s | -49.6°C | 3.0% | 0hPa | 2.5V | 00:00:00 | 02:37:25 | 00:00:00 | |
| DJ2DS-15 | 2026-09-05 01:26:22 | 54.67989 | 0.53261 | 113° | 102km/h | 13579m | -5.5m/s | -50.3°C | 0.8% | -1.0hPa | 2.5V | 00:00:00 | 00:00:00 | 00:00:00 | |
| DJ2DS-15 | 2026-09-05 01:26:19 | 54.68008 | 0.53179 | 111° | 104km/h | 13589m | -4.3m/s | -50.2°C | 3.2% | 0hPa | 2.5V | 00:00:00 | 02:36:48 | 00:00:00 | |
| DJ2DS-15 | 2026-09-05 01:25:46 | 54.68287 | 0.51623 | 108° | 97km/h | 13750m | -4.4m/s | -49.8°C | 0.7% | -1.0hPa | 2.5V | 00:00:00 | 00:00:00 | 00:00:00 | |
| DJ2DS-15 | 2026-09-05 01:25:09 | 54.68662 | 0.50067 | 114° | 86km/h | 13910m | -4.2m/s | -50.3°C | 0.8% | -1.0hPa | 2.5V | 00:00:00 | 00:00:00 | 00:00:00 | |
| DJ2DS-15 | 2026-09-05 01:23:57 | 54.69283 | 0.47556 | 105° | 82km/h | 14220m | -5.0m/s | -50.7°C | 0.9% | -1.0hPa | 2.5V | 00:00:00 | 00:00:00 | 00:00:00 | |
| DJ2DS-15 | 2026-09-05 01:23:21 | 54.69589 | 0.46201 | 107° | 108km/h | 14389m | -5.4m/s | -51.3°C | 0.9% | -1.0hPa | 2.5V | 00:00:00 | 00:00:00 | 00:00:00 | |
| DJ2DS-15 | 2026-09-05 01:23:10 | 54.69715 | 0.45726 | 122° | 93km/h | 14440m | -4.1m/s | -51.2°C | 3.5% | 0hPa | 2.5V | 07:59:00 | 02:33:39 | 00:00:00 | |
| DJ2DS-15 | 2026-09-05 01:22:45 | 54.69980 | 0.44810 | 122° | 100km/h | 14557m | -5.5m/s | -51.3°C | 0.8% | -1.0hPa | 2.5V | 00:00:00 | 00:00:00 | 00:00:00 | |
| DJ2DS-15 | 2026-09-05 01:22:29 | 54.70161 | 0.44319 | 115° | 75km/h | 14636m | -4.9m/s | -51.4°C | 3.3% | 0hPa | 2.5V | 00:00:00 | 02:32:58 | 00:00:00 | |
| DJ2DS-15 | 2026-09-05 01:22:09 | 54.70240 | 0.43660 | 98° | 86km/h | 14736m | -4.9m/s | -51.1°C | 3.2% | 0hPa | 2.5V | 08:00:00 | 02:32:38 | 00:00:00 | |
| DJ2DS-15 | 2026-09-05 01:21:48 | 54.70344 | 0.42897 | 94° | 97km/h | 14837m | -4.8m/s | -51.5°C | 3.4% | 0hPa | 2.5V | 00:00:00 | 02:32:17 | 00:00:00 | |
| DJ2DS-15 | 2026-09-05 01:21:28 | 54.70443 | 0.42073 | 112° | 77km/h | 14936m | -5.1m/s | -51.0°C | 3.3% | 0hPa | 2.5V | 00:00:00 | 02:31:57 | 00:00:00 | |
| DJ2DS-15 | 2026-09-05 01:21:08 | 54.70508 | 0.41417 | 91° | 82km/h | 15038m | -4.7m/s | -51.4°C | 3.3% | 0hPa | 2.5V | 00:00:00 | 02:31:37 | 00:00:00 | |
| DJ2DS-15 | 2026-09-05 01:20:57 | 54.70545 | 0.40990 | 105° | 78km/h | 15090m | -4.8m/s | -51.7°C | 0.8% | -1.0hPa | 2.6V | 00:00:00 | 00:00:00 | 00:00:00 | |
| DJ2DS-15 | 2026-09-05 01:20:48 | 54.70576 | 0.40723 | 93° | 80km/h | 15135m | -4.9m/s | -51.9°C | 3.4% | 0hPa | 2.6V | 00:00:00 | 02:31:17 | 00:00:00 | |
| DJ2DS-15 | 2026-09-05 01:20:28 | 54.70543 | 0.40028 | 97° | 78km/h | 15235m | -4.9m/s | -52.5°C | 3.5% | 0hPa | 2.6V | 00:00:00 | 02:30:57 | 00:00:00 | |
| DJ2DS-15 | 2026-09-05 01:20:21 | 54.70555 | 0.39798 | 88° | 66km/h | 15268m | -4.7m/s | -52.2°C | 0.8% | -1.0hPa | 2.6V | 00:00:00 | 00:00:00 | 00:00:00 | |
| DJ2DS-15 | 2026-09-05 01:20:08 | 54.70508 | 0.39355 | 80° | 100km/h | 15330m | -4.7m/s | -52.3°C | 3.5% | 0hPa | 2.6V | 00:00:00 | 02:30:37 | 00:00:00 | |
| DJ2DS-15 | 2026-09-05 01:19:48 | 54.70516 | 0.38484 | 98° | 99km/h | 15424m | -4.4m/s | -52.5°C | 3.6% | 0hPa | 2.5V | 00:00:00 | 02:30:17 | 00:00:00 | |
| DJ2DS-15 | 2026-09-05 01:19:28 | 54.70516 | 0.37628 | 98° | 95km/h | 15512m | -4.4m/s | -52.3°C | 3.5% | 0hPa | 2.5V | 00:00:00 | 02:29:57 | 00:00:00 | |
| DJ2DS-15 | 2026-09-05 01:19:09 | 54.70608 | 0.36847 | 92° | 78km/h | 15599m | -5.0m/s | -52.1°C | 0.8% | -1.0hPa | 2.5V | 00:00:00 | 00:00:00 | 00:00:00 | |
| DJ2DS-15 | 2026-09-05 01:19:08 | 54.70608 | 0.36812 | 92° | 95km/h | 15604m | -4.7m/s | -52.1°C | 3.4% | 0hPa | 2.5V | 08:03:00 | 02:29:37 | 00:00:00 | |
| DJ2DS-15 | 2026-09-05 01:18:48 | 54.70599 | 0.35978 | 99° | 86km/h | 15701m | -5.3m/s | -52.2°C | 3.4% | 0hPa | 2.5V | 00:00:00 | 02:29:17 | 00:00:00 | |
| DJ2DS-15 | 2026-09-05 01:18:33 | 54.70589 | 0.35409 | 78° | 91km/h | 15783m | -5.5m/s | -52.2°C | 0.8% | -1.0hPa | 2.5V | 00:00:00 | 00:00:00 | 00:00:00 | |
| DJ2DS-15 | 2026-09-05 01:18:28 | 54.70569 | 0.35240 | 81° | 99km/h | 15805m | -5.4m/s | -52.3°C | 3.4% | 0hPa | 2.5V | 00:00:00 | 02:28:57 | 00:00:00 | |
| DJ2DS-15 | 2026-09-05 01:18:08 | 54.70584 | 0.34391 | 90° | 95km/h | 15919m | -5.6m/s | -52.7°C | 3.6% | 0hPa | 2.5V | 00:00:00 | 02:28:37 | 00:00:00 | |
| DJ2DS-15 | 2026-09-05 01:17:57 | 54.70553 | 0.33916 | 88° | 104km/h | 15989m | -6.0m/s | -52.2°C | 0.7% | -1.0hPa | 2.6V | 00:00:00 | 00:00:00 | 00:00:00 | |
| DJ2DS-15 | 2026-09-05 01:17:48 | 54.70572 | 0.33569 | 100° | 78km/h | 16037m | -6.0m/s | -52.0°C | 3.5% | 0hPa | 2.6V | 00:00:00 | 02:28:17 | 00:00:00 | |
| DJ2DS-15 | 2026-09-05 01:17:28 | 54.70562 | 0.32911 | 75° | 95km/h | 16162m | -6.3m/s | -51.4°C | 3.3% | 0hPa | 2.6V | 00:00:00 | 02:27:57 | 00:00:00 | |
| DJ2DS-15 | 2026-09-05 01:17:08 | 54.70529 | 0.32091 | 94° | 89km/h | 16291m | -6.5m/s | -50.8°C | 3.2% | 0hPa | 2.6V | 00:00:00 | 02:27:37 | 00:00:00 | |
| DJ2DS-15 | 2026-09-05 01:16:48 | 54.70480 | 0.31320 | 97° | 84km/h | 16420m | -6.7m/s | -50.7°C | 3.3% | 0hPa | 2.6V | 00:00:00 | 02:27:17 | 00:00:00 | |
| DJ2DS-15 | 2026-09-05 01:16:28 | 54.70423 | 0.30607 | 84° | 78km/h | 16549m | -5.7m/s | -49.1°C | 2.9% | 0hPa | 2.6V | 00:00:00 | 02:26:57 | 00:00:00 | |
| DJ2DS-15 | 2026-09-05 01:16:08 | 54.70340 | 0.29951 | 62° | 91km/h | 16668m | -5.8m/s | -49.3°C | 2.9% | 0hPa | 2.6V | 08:06:00 | 02:26:37 | 00:00:00 | |
| DJ2DS-15 | 2026-09-05 01:15:48 | 54.70219 | 0.29201 | 69° | 91km/h | 16782m | -5.0m/s | -49.9°C | 3.0% | 0hPa | 2.6V | 00:00:00 | 02:26:17 | 00:00:00 | |
| DJ2DS-15 | 2026-09-05 01:15:32 | 54.70097 | 0.28597 | 84° | 97km/h | 16868m | -5.3m/s | -49.8°C | 0.6% | -1.0hPa | 2.6V | 00:00:00 | 00:00:00 | 00:00:00 | |
| DJ2DS-15 | 2026-09-05 01:15:28 | 54.70092 | 0.28438 | 90° | 78km/h | 16890m | -5.5m/s | -49.6°C | 3.0% | 0hPa | 2.6V | 00:00:00 | 02:25:57 | 00:00:00 | |
| DJ2DS-15 | 2026-09-05 01:15:08 | 54.70019 | 0.27760 | 86° | 82km/h | 16998m | -5.7m/s | -49.2°C | 3.0% | 0hPa | 2.6V | 00:00:00 | 02:25:37 | 00:00:00 | |
| DJ2DS-15 | 2026-09-05 01:14:56 | 54.70048 | 0.27285 | 103° | 75km/h | 17064m | -5.4m/s | -49.1°C | 0.5% | -1.0hPa | 2.5V | 00:00:00 | 00:00:00 | 00:00:00 | |
| DJ2DS-15 | 2026-09-05 01:14:48 | 54.70073 | 0.27060 | 93° | 71km/h | 17109m | -5.5m/s | -48.6°C | 2.9% | 0hPa | 2.5V | 00:00:00 | 02:25:17 | 00:00:00 | |
| DJ2DS-15 | 2026-09-05 01:14:28 | 54.70079 | 0.26451 | 106° | 64km/h | 17224m | -6.3m/s | -47.2°C | 2.7% | 0hPa | 2.5V | 00:00:00 | 02:24:57 | 00:00:00 | |
| DJ2DS-15 | 2026-09-05 01:14:08 | 54.70066 | 0.25900 | 107° | 53km/h | 17343m | -6.1m/s | -46.3°C | 2.5% | 0hPa | 2.5V | 00:00:00 | 02:24:37 | 00:00:00 | |
| DJ2DS-15 | 2026-09-05 01:13:48 | 54.70119 | 0.25458 | 94° | 58km/h | 17468m | -6.1m/s | -46.2°C | 2.5% | 0hPa | 2.6V | 00:00:00 | 02:24:17 | 00:00:00 | |
| DJ2DS-15 | 2026-09-05 01:13:28 | 54.70269 | 0.25042 | 142° | 47km/h | 17594m | -6.5m/s | -46.6°C | 2.5% | 0hPa | 2.6V | 00:00:00 | 02:23:57 | 00:00:00 | |
| DJ2DS-15 | 2026-09-05 01:13:08 | 54.70385 | 0.24688 | 145° | 38km/h | 17721m | -6.7m/s | -47.4°C | 2.6% | 0hPa | 2.6V | 08:09:00 | 02:23:37 | 00:00:00 | |
| DJ2DS-15 | 2026-09-05 01:12:48 | 54.70508 | 0.24457 | 130° | 33km/h | 17852m | -6.4m/s | -48.5°C | 2.8% | 0hPa | 2.5V | 00:00:00 | 02:23:17 | 00:00:00 | |
| DJ2DS-15 | 2026-09-05 01:12:32 | 54.70635 | 0.24360 | 141° | 9km/h | 17959m | -6.9m/s | -48.8°C | 0.5% | -1.0hPa | 2.5V | 00:00:00 | 00:00:00 | 00:00:00 | |
| DJ2DS-15 | 2026-09-05 01:12:28 | 54.70640 | 0.24338 | 97° | 40km/h | 17987m | -6.7m/s | -49.0°C | 2.9% | 0hPa | 2.5V | 00:00:00 | 02:22:57 | 00:00:00 | |
| DJ2DS-15 | 2026-09-05 01:12:08 | 54.70765 | 0.24087 | 162° | 38km/h | 18126m | -6.8m/s | -49.8°C | 3.0% | 0hPa | 2.5V | 00:00:00 | 02:22:37 | 00:00:00 | |
| DJ2DS-15 | 2026-09-05 01:11:48 | 54.70839 | 0.23785 | 132° | 44km/h | 18268m | -7.2m/s | -50.7°C | 3.0% | 0hPa | 2.6V | 00:00:00 | 02:22:17 | 00:00:00 | |
| DJ2DS-15 | 2026-09-05 01:11:28 | 54.70924 | 0.23460 | 99° | 58km/h | 18413m | -7.5m/s | -51.9°C | 3.2% | 0hPa | 2.6V | 00:00:00 | 02:21:57 | 00:00:00 | |
| DJ2DS-15 | 2026-09-05 01:11:20 | 54.70979 | 0.23228 | 126° | 66km/h | 18471m | -7.0m/s | -52.3°C | 0.7% | -1.0hPa | 2.6V | 00:00:00 | 00:00:00 | 00:00:00 | |
| DJ2DS-15 | 2026-09-05 01:11:08 | 54.71034 | 0.23001 | 87° | 75km/h | 18556m | -7.0m/s | -52.8°C | 3.5% | 0hPa | 2.6V | 00:00:00 | 02:21:37 | 00:00:00 | |
| DJ2DS-15 | 2026-09-05 01:10:48 | 54.71130 | 0.22397 | 115° | 64km/h | 18692m | -6.6m/s | -53.1°C | 3.7% | 0hPa | 2.5V | 00:00:00 | 02:21:17 | 00:00:00 | |
| DJ2DS-15 | 2026-09-05 01:10:44 | 54.71142 | 0.22318 | 93° | 47km/h | 18718m | -6.1m/s | -52.2°C | 0.6% | -1.0hPa | 2.5V | 00:00:00 | 00:00:00 | 00:00:00 | |
| DJ2DS-15 | 2026-09-05 01:10:28 | 54.71214 | 0.21868 | 130° | 47km/h | 18817m | -6.3m/s | -52.0°C | 3.4% | 0hPa | 2.5V | 00:00:00 | 02:20:57 | 00:00:00 | |
| DJ2DS-15 | 2026-09-05 01:10:08 | 54.71318 | 0.21534 | 105° | 64km/h | 18943m | -6.3m/s | -52.4°C | 0.6% | -1.0hPa | 2.5V | 00:00:00 | 00:00:00 | 00:00:00 | |
| DJ2DS-15 | 2026-09-05 01:10:07 | 54.71323 | 0.21506 | 110° | 49km/h | 18949m | -6.3m/s | -52.2°C | 3.5% | 0hPa | 2.5V | 08:12:00 | 02:20:36 | 00:00:00 | |
| DJ2DS-15 | 2026-09-05 01:09:47 | 54.71456 | 0.21162 | 82° | 46km/h | 19072m | -6.2m/s | -51.2°C | 3.2% | 0hPa | 2.5V | 00:00:00 | 02:20:16 | 00:00:00 | |
| DJ2DS-15 | 2026-09-05 01:09:32 | 54.71493 | 0.20832 | 132° | 40km/h | 19162m | -6.1m/s | -50.9°C | 0.6% | -1.0hPa | 2.5V | 00:00:00 | 00:00:00 | 00:00:00 | |
| DJ2DS-15 | 2026-09-05 01:09:27 | 54.71516 | 0.20789 | 116° | 38km/h | 19193m | -6.4m/s | -51.0°C | 3.1% | 0hPa | 2.5V | 00:00:00 | 02:19:56 | 00:00:00 | |
| DJ2DS-15 | 2026-09-05 01:09:07 | 54.71517 | 0.20477 | 129° | 38km/h | 19319m | -6.3m/s | -51.8°C | 3.3% | 0hPa | 2.5V | 00:00:00 | 02:19:36 | 00:00:00 | |
| DJ2DS-15 | 2026-09-05 01:08:45 | 54.71464 | 0.20203 | 105° | 29km/h | 19465m | -6.5m/s | -52.6°C | 3.4% | 0hPa | 2.5V | 00:00:00 | 02:19:14 | 00:00:00 | |
| DJ2DS-15 | 2026-09-05 01:08:25 | 54.71384 | 0.20032 | 49° | 47km/h | 19602m | -7.4m/s | -53.8°C | 3.8% | 0hPa | 2.5V | 00:00:00 | 02:18:54 | 00:00:00 | |
| DJ2DS-15 | 2026-09-05 01:08:05 | 54.71288 | 0.19671 | 50° | 64km/h | 19751m | -7.1m/s | -52.4°C | 3.6% | 0hPa | 2.5V | 00:00:00 | 02:18:34 | 00:00:00 | |
| DJ2DS-15 | 2026-09-05 01:07:45 | 54.71242 | 0.19144 | 92° | 60km/h | 19904m | -7.6m/s | -51.4°C | 3.3% | 0hPa | 2.6V | 00:00:00 | 02:18:14 | 00:00:00 | |
| DJ2DS-15 | 2026-09-05 01:07:25 | 54.71175 | 0.18647 | 98° | 60km/h | 20053m | -7.0m/s | -52.1°C | 3.3% | 0hPa | 2.6V | 00:00:00 | 02:17:54 | 00:00:00 | |
| DJ2DS-15 | 2026-09-05 01:07:08 | 54.71209 | 0.18178 | 97° | 62km/h | 20184m | -7.2m/s | -53.1°C | 0.7% | -1.0hPa | 2.6V | 00:00:00 | 00:00:00 | 00:00:00 | |
| DJ2DS-15 | 2026-09-05 01:07:05 | 54.71213 | 0.18123 | 99° | 60km/h | 20198m | -7.2m/s | -53.0°C | 3.7% | 0hPa | 2.6V | 08:15:00 | 02:17:34 | 00:00:00 | |
| DJ2DS-15 | 2026-09-05 01:06:45 | 54.71290 | 0.17623 | 116° | 42km/h | 20341m | -7.2m/s | -51.9°C | 3.7% | 0hPa | 2.5V | 00:00:00 | 02:17:14 | 00:00:00 | |
| DJ2DS-15 | 2026-09-05 01:06:25 | 54.71412 | 0.17338 | 139° | 20km/h | 20486m | -7.2m/s | -49.9°C | 3.1% | 0hPa | 2.5V | 00:00:00 | 02:16:54 | 00:00:00 | |
| DJ2DS-15 | 2026-09-05 01:06:05 | 54.71494 | 0.17235 | 111° | 15km/h | 20631m | -7.2m/s | -49.9°C | 3.0% | 0hPa | 2.5V | 00:00:00 | 02:16:34 | 00:00:00 | |
| DJ2DS-15 | 2026-09-05 01:05:56 | 54.71484 | 0.17195 | 62° | 13km/h | 20703m | -7.2m/s | -50.2°C | 0.5% | -1.0hPa | 2.6V | 00:00:00 | 00:00:00 | 00:00:00 | |
| DJ2DS-15 | 2026-09-05 01:05:45 | 54.71464 | 0.17122 | 67° | 33km/h | 20776m | -7.3m/s | -50.8°C | 3.2% | 0hPa | 2.6V | 00:00:00 | 02:16:14 | 00:00:00 | |
| DJ2DS-15 | 2026-09-05 01:05:25 | 54.71439 | 0.16832 | 75° | 27km/h | 20921m | -7.0m/s | -51.6°C | 3.3% | 0hPa | 2.6V | 00:00:00 | 02:15:54 | 00:00:00 | |
| DJ2DS-15 | 2026-09-05 01:05:05 | 54.71405 | 0.16597 | 87° | 37km/h | 21070m | -7.4m/s | -52.6°C | 3.5% | 0hPa | 2.6V | 00:00:00 | 02:15:34 | 00:00:00 | |
| DJ2DS-15 | 2026-09-05 01:04:45 | 54.71422 | 0.16284 | 89° | 27km/h | 21219m | -7.3m/s | -53.4°C | 3.8% | 0hPa | 2.6V | 00:00:00 | 02:15:14 | 00:00:00 | |
| DJ2DS-15 | 2026-09-05 01:04:25 | 54.71356 | 0.16073 | 51° | 27km/h | 21376m | -8.1m/s | -52.2°C | 3.4% | 0hPa | 2.6V | 00:00:00 | 02:14:54 | 00:00:00 | |
| DJ2DS-15 | 2026-09-05 01:04:07 | 54.71245 | 0.15976 | 17° | 13km/h | 21525m | -8.3m/s | -53.1°C | 0.7% | -1.0hPa | 2.6V | 00:00:00 | 00:00:00 | 00:00:00 | |
| DJ2DS-15 | 2026-09-05 01:04:05 | 54.71239 | 0.15972 | 29° | 18km/h | 21541m | -8.2m/s | -53.0°C | 3.8% | 0hPa | 2.6V | 08:18:00 | 02:14:34 | 00:00:00 | |
| DJ2DS-15 | 2026-09-05 01:03:45 | 54.71169 | 0.15874 | 40° | 13km/h | 21710m | -8.4m/s | -51.8°C | 3.5% | 0hPa | 2.6V | 00:00:00 | 02:14:14 | 00:00:00 | |
| DJ2DS-15 | 2026-09-05 01:03:31 | 54.71158 | 0.15862 | 195° | 13km/h | 21829m | -8.4m/s | -52.0°C | 0.6% | -1.0hPa | 2.6V | 00:00:00 | 00:00:00 | 00:00:00 | |
| DJ2DS-15 | 2026-09-05 01:03:25 | 54.71187 | 0.15860 | 165° | 31km/h | 21880m | -8.4m/s | -51.0°C | 3.2% | 0hPa | 2.6V | 00:00:00 | 02:13:54 | 00:00:00 | |
| DJ2DS-15 | 2026-09-05 01:03:05 | 54.71282 | 0.15655 | 125° | 38km/h | 22047m | -8.2m/s | -51.9°C | 3.4% | 0hPa | 2.6V | 00:00:00 | 02:13:34 | 00:00:00 | |
| DJ2DS-15 | 2026-09-05 01:02:25 | 54.71516 | 0.15055 | 151° | 37km/h | 22390m | -8.6m/s | -51.9°C | 3.5% | 0hPa | 2.5V | 00:00:00 | 02:12:54 | 00:00:00 | |
| DJ2DS-15 | 2026-09-05 01:02:05 | 54.71690 | 0.14999 | 208° | 26km/h | 22565m | -8.6m/s | -51.5°C | 3.4% | 0hPa | 2.5V | 00:00:00 | 02:12:34 | 00:00:00 | |
| DJ2DS-15 | 2026-09-05 01:01:45 | 54.71797 | 0.15123 | 187° | 26km/h | 22744m | -9.2m/s | -51.8°C | 3.4% | 0hPa | 2.5V | 00:00:00 | 02:12:14 | 00:00:00 | |
| DJ2DS-15 | 2026-09-05 01:01:43 | 54.71813 | 0.15124 | 174° | 31km/h | 22762m | -9.6m/s | -51.7°C | 0.6% | -1.0hPa | 2.5V | 00:00:00 | 00:00:00 | 00:00:00 | |
| DJ2DS-15 | 2026-09-05 01:01:25 | 54.71864 | 0.15008 | 37° | 18km/h | 22929m | -9.7m/s | -51.8°C | 3.4% | 0hPa | 2.5V | 00:00:00 | 02:11:54 | 00:00:00 | |
| DJ2DS-15 | 2026-09-05 01:01:07 | 54.71822 | 0.15092 | 293° | 13km/h | 23099m | -10.0m/s | -52.4°C | 0.6% | -1.0hPa | 2.5V | 00:00:00 | 00:00:00 | 00:00:00 | |
| DJ2DS-15 | 2026-09-05 01:01:05 | 54.71818 | 0.15101 | 325° | 22km/h | 23119m | -9.7m/s | -52.2°C | 3.7% | 0hPa | 2.5V | 08:21:00 | 02:11:34 | 00:00:00 | |
| DJ2DS-15 | 2026-09-05 01:00:45 | 54.71713 | 0.15043 | 341° | 9km/h | 23309m | -9.3m/s | -50.4°C | 3.2% | 0hPa | 2.6V | 00:00:00 | 02:11:14 | 00:00:00 | |
| DJ2DS-15 | 2026-09-05 01:00:25 | 54.71687 | 0.15062 | 142° | 26km/h | 23494m | -9.5m/s | -50.3°C | 3.3% | 0hPa | 2.6V | 00:00:00 | 02:10:54 | 00:00:00 | |
| DJ2DS-15 | 2026-09-05 01:00:05 | 54.71788 | 0.14914 | 146° | 51km/h | 23676m | -9.3m/s | -49.8°C | 3.1% | 0hPa | 2.6V | 00:00:00 | 02:10:34 | 00:00:00 | |
| DJ2DS-15 | 2026-09-05 00:59:55 | 54.71891 | 0.14765 | 125° | 58km/h | 23777m | -9.5m/s | -49.9°C | 0.5% | -1.0hPa | 2.5V | 00:00:00 | 00:00:00 | 00:00:00 | |
| DJ2DS-15 | 2026-09-05 00:59:45 | 54.71939 | 0.14572 | 103° | 22km/h | 23862m | -9.3m/s | -49.6°C | 3.1% | 0hPa | 2.5V | 00:00:00 | 02:10:14 | 00:00:00 | |
| DJ2DS-15 | 2026-09-05 00:59:25 | 54.71947 | 0.14397 | 90° | 11km/h | 24055m | -9.6m/s | -49.7°C | 3.2% | 0hPa | 2.5V | 00:00:00 | 02:09:54 | 00:00:00 | |
| DJ2DS-15 | 2026-09-05 00:59:05 | 54.71909 | 0.14441 | 288° | 26km/h | 24247m | -9.9m/s | -49.0°C | 2.9% | 0hPa | 2.5V | 00:00:00 | 02:09:34 | 00:00:00 | |
| DJ2DS-15 | 2026-09-05 00:58:45 | 54.71973 | 0.14604 | 171° | 37km/h | 24448m | -10.2m/s | -49.7°C | 3.1% | 0hPa | 2.6V | 00:00:00 | 02:09:14 | 00:00:00 | |
| DJ2DS-15 | 2026-09-05 00:58:43 | 54.71991 | 0.14594 | 155° | 27km/h | 24478m | -10.4m/s | -49.7°C | 0.5% | -1.0hPa | 2.6V | 00:00:00 | 00:00:00 | 00:00:00 | |
| DJ2DS-15 | 2026-09-05 00:58:25 | 54.72053 | 0.14341 | 86° | 38km/h | 24653m | -10.1m/s | -50.4°C | 3.3% | 0hPa | 2.6V | 00:00:00 | 02:08:54 | 00:00:00 | |
| DJ2DS-15 | 2026-09-05 00:58:07 | 54.71969 | 0.14070 | 40° | 35km/h | 24849m | -10.7m/s | -50.4°C | 0.5% | -1.0hPa | 2.6V | 00:00:00 | 00:00:00 | 00:00:00 | |
| DJ2DS-15 | 2026-09-05 00:58:05 | 54.71962 | 0.14060 | 38° | 27km/h | 24859m | -10.5m/s | -50.4°C | 3.3% | 0hPa | 2.6V | 08:24:00 | 02:08:34 | 00:00:00 | |
| DJ2DS-15 | 2026-09-05 00:57:45 | 54.71868 | 0.14093 | 202° | 38km/h | 25071m | -11.1m/s | -50.1°C | 3.2% | 0hPa | 2.6V | 00:00:00 | 02:08:14 | 00:00:00 | |
| DJ2DS-15 | 2026-09-05 00:57:30 | 54.71921 | 0.13912 | 92° | 53km/h | 25234m | -11.1m/s | -50.3°C | 0.6% | -1.0hPa | 2.6V | 00:00:00 | 00:00:00 | 00:00:00 | |
| DJ2DS-15 | 2026-09-05 00:57:25 | 54.71916 | 0.13791 | 81° | 26km/h | 25290m | -10.2m/s | -49.9°C | 3.4% | 0hPa | 2.6V | 00:00:00 | 02:07:54 | 00:00:00 | |
| DJ2DS-15 | 2026-09-05 00:57:05 | 54.71875 | 0.13608 | 204° | 38km/h | 25513m | -11.4m/s | -48.4°C | 2.9% | 0hPa | 2.6V | 00:00:00 | 02:07:34 | 00:00:00 | |
| DJ2DS-15 | 2026-09-05 00:56:54 | 54.71967 | 0.13615 | 169° | 46km/h | 25636m | -11.5m/s | -48.8°C | 0.5% | -1.0hPa | 2.6V | 00:00:00 | 00:00:00 | 00:00:00 | |
| BIOWL1-15 | 2026-09-05 00:56:34 | 54.72149 | 0.13428 | 125° | 35km/h | 25861m | -10.9m/s | -49.4°C | 0% | 0hPa | 2.6V | 08:26:32 | 02:07:03 | 00:00:00 | |
| BIOWL1-15 | 2026-09-05 00:56:23 | 54.72152 | 0.13195 | 63° | 44km/h | 26032m | -12.1m/s | -49.9°C | 0% | 0hPa | 2.6V | 08:26:32 | 02:06:48 | 00:00:00 | |
| BIOWL1-15 | 2026-09-05 00:56:10 | 54.72070 | 0.13076 | 20° | 37km/h | 26152m | -11.7m/s | -49.8°C | 0% | 0hPa | 2.6V | 08:27:23 | 02:06:38 | 00:00:00 | |
| BIOWL1-15 | 2026-09-05 00:55:58 | 54.71984 | 0.13036 | 20° | 18km/h | 26304m | -12m/s | -50.4°C | 0% | 0hPa | 2.6V | 08:27:23 | 02:06:25 | 00:00:00 | |
| BIOWL1-15 | 2026-09-05 00:55:48 | 54.71966 | 0.13032 | 226° | 4km/h | 26410m | -12m/s | -50.3°C | 0% | 0hPa | 2.5V | 08:27:23 | 02:06:16 | 00:00:00 | |
| BIOWL1-15 | 2026-09-05 00:55:38 | 54.72006 | 0.13059 | 184° | 29km/h | 26528m | -12.2m/s | -49.7°C | 0% | 0hPa | 2.5V | 08:27:23 | 02:06:06 | 00:00:00 | |
| BIOWL1-15 | 2026-09-05 00:55:28 | 54.72075 | 0.13021 | 145° | 38km/h | 26636m | -12.2m/s | -49.1°C | 0% | 0hPa | 2.5V | 08:27:23 | 02:05:57 | 00:00:00 | |
| BIOWL1-15 | 2026-09-05 00:55:18 | 54.72205 | 0.12737 | 112° | 66km/h | 26819m | -12.6m/s | 0°C | 0% | 0hPa | 2.5V | 18:12:15 | 02:05:42 | 00:00:00 | |
| BIOWL1-15 | 2026-09-05 00:55:07 | 54.72231 | 0.12583 | 105° | 55km/h | 26895m | -12.4m/s | 0°C | 0% | 0hPa | 2.5V | 18:12:15 | 02:05:36 | 00:00:00 | |
| DJ2DS-15 | 2026-09-05 00:55:05 | 54.72238 | 0.12537 | 102° | 27km/h | 26920m | -12.5m/s | -48.4°C | 3.1% | 0hPa | 2.6V | 08:27:00 | 02:05:34 | 00:00:00 | |
| DJ2DS-15 | 2026-09-05 00:54:45 | 54.72267 | 0.12335 | 239° | 38km/h | 27173m | -12.7m/s | -47.7°C | 2.9% | 0hPa | 2.5V | 00:00:00 | 02:05:14 | 00:00:00 | |
| DL1XH-west | 2026-09-05 00:54:27 | 54.72418 | 0.12442 | 180° | 57km/h | 27400m | -13.1m/s | 0°C | 0% | 0hPa | 2.5V | 18:12:15 | 02:04:56 | 00:00:00 | |
| DL1XH-west | 2026-09-05 00:54:16 | 54.72578 | 0.12359 | 146° | 57km/h | 27544m | -13.8m/s | 0°C | 0% | 0hPa | 2.6V | 18:12:15 | 02:04:45 | 00:00:00 | |
| DJ2DS-15 | 2026-09-05 00:54:05 | 54.72680 | 0.12186 | 129° | 40km/h | 27691m | -13.3m/s | -47.1°C | 2.8% | 0hPa | 2.6V | 00:00:00 | 02:04:34 | 00:00:00 | |
| DJ2DS-15 | 2026-09-05 00:53:25 | 54.72662 | 0.11931 | 215° | 37km/h | 28224m | -13.9m/s | -46.8°C | 2.8% | 0hPa | 2.6V | 00:00:00 | 02:03:54 | 00:00:00 | |
| DJ2DS-15 | 2026-09-05 00:53:18 | 54.72714 | 0.11963 | 181° | 33km/h | 28317m | -13.8m/s | -47.1°C | 0.5% | -1.0hPa | 2.6V | 00:00:00 | 00:00:00 | 00:00:00 | |
| DJ2DS-15 | 2026-09-05 00:53:05 | 54.72830 | 0.11876 | 132° | 47km/h | 28492m | -14.1m/s | -47.2°C | 2.9% | 0hPa | 2.6V | 00:00:00 | 02:03:34 | 00:00:00 | |
| DL1XH-west | 2026-09-05 00:52:33 | 54.72757 | 0.11404 | 13° | 20km/h | 28951m | -14m/s | -45.9°C | 0% | 0hPa | 2.6V | 18:12:15 | 02:03:02 | 00:00:00 | |
| DL1XH-west | 2026-09-05 00:52:23 | 54.72691 | 0.11410 | 5° | 18km/h | 29105m | -14.8m/s | -45.5°C | 0% | 0hPa | 2.6V | 18:12:15 | 02:02:52 | 00:00:00 | |
| DL1XH-west | 2026-09-05 00:52:13 | 54.72708 | 0.11403 | 186° | 9km/h | 29385m | -14.2m/s | -46.8°C | 0% | 0hPa | 2.6V | 18:12:15 | 02:02:42 | 00:00:00 | |
| BIOWL1-15 | 2026-09-05 00:52:04 | 54.72741 | 0.11415 | 212° | 26km/h | 29352m | 6.4m/s | 0°C | 0% | 0hPa | 2.6V | 18:12:15 | 02:02:33 | 00:00:00 | |
| DL1XH-west | 2026-09-05 00:52:02 | 54.72758 | 0.11431 | 196° | 24km/h | 29335m | 6.4m/s | -46.5°C | 0% | 0hPa | 2.6V | 18:12:15 | 02:02:30 | 00:00:00 | |
| DL1XH-west | 2026-09-05 00:51:50 | 54.72812 | 0.11437 | 182° | 24km/h | 29270m | 5.1m/s | -46.1°C | 0% | 0hPa | 2.6V | 18:12:15 | 02:02:19 | 00:00:00 | |
| DL1XH-west | 2026-09-05 00:51:39 | 54.72874 | 0.11436 | 208° | 31km/h | 29207m | 4.8m/s | -45.8°C | 0% | 0hPa | 2.6V | 18:12:15 | 02:02:08 | 00:00:00 | |
| DL1XH-west | 2026-09-05 00:51:29 | 54.72922 | 0.11417 | 151° | 22km/h | 29147m | 5.9m/s | -45.5°C | 0% | 0hPa | 2.6V | 18:12:15 | 02:01:57 | 00:00:00 | |
| DL1XH-west | 2026-09-05 00:51:17 | 54.72965 | 0.11381 | 118° | 20km/h | 29088m | 5.9m/s | -45.6°C | 0% | 0hPa | 2.6V | 18:12:15 | 02:01:46 | 00:00:00 | |
| DL1XH-west | 2026-09-05 00:51:06 | 54.73006 | 0.11328 | 124° | 15km/h | 29027m | 5.4m/s | 0°C | 0% | 0hPa | 2.6V | 18:12:15 | 02:01:35 | 00:00:00 | |
| DL1XH-west | 2026-09-05 00:50:55 | 54.73044 | 0.11275 | 136° | 20km/h | 28967m | 6.2m/s | 0°C | 0% | 0hPa | 2.6V | 18:12:15 | 02:01:24 | 00:00:00 | |
| DL1XH-west | 2026-09-05 00:50:45 | 54.73072 | 0.11231 | 138° | 20km/h | 28911m | 5.2m/s | 0°C | 0% | 0hPa | 2.6V | 18:12:15 | 02:01:14 | 00:00:00 | |
| DL1XH-west | 2026-09-05 00:50:34 | 54.73108 | 0.11166 | 160° | 16km/h | 28852m | 4m/s | 0°C | 0% | 0hPa | 2.6V | 18:12:15 | 02:01:03 | 00:00:00 | |
| DL1XH-west | 2026-09-05 00:50:23 | 54.73139 | 0.11121 | 110° | 15km/h | 28795m | 4.9m/s | 0°C | 0% | 0hPa | 2.6V | 18:12:15 | 02:00:52 | 00:00:00 | |
| DL1XH-west | 2026-09-05 00:50:13 | 54.73148 | 0.11050 | 112° | 26km/h | 28741m | 5.8m/s | 0°C | 0% | 0hPa | 2.7V | 18:12:15 | 02:00:42 | 00:00:00 | |
| DJ2DS-15 | 2026-09-05 00:49:44 | 54.73160 | 0.10883 | 97° | 13km/h | 28585m | 5.6m/s | -47.3°C | 2.9% | 0hPa | 2.6V | 00:00:00 | 02:00:13 | 00:00:00 | |
| DJ2DS-15 | 2026-09-05 00:49:42 | 54.73159 | 0.10834 | 68° | 18km/h | 28558m | 4.0m/s | -47.4°C | 0.5% | -1.0hPa | 2.6V | 00:00:00 | 00:00:00 | 00:00:00 | |
| DJ2DS-15 | 2026-09-05 00:49:24 | 54.73159 | 0.10761 | 61° | 7km/h | 28477m | 3.9m/s | -47.4°C | 2.9% | 0hPa | 2.6V | 00:00:00 | 01:59:53 | 00:00:00 | |
| DJ2DS-15 | 2026-09-05 00:49:05 | 54.73170 | 0.10714 | 113° | 2km/h | 28373m | 4.2m/s | -47.4°C | 0.5% | -1.0hPa | 2.6V | 00:00:00 | 00:00:00 | 00:00:00 | |
| DJ2DS-15 | 2026-09-05 00:49:04 | 54.73169 | 0.10712 | 88° | 13km/h | 28369m | 5.3m/s | -47.3°C | 2.9% | 0hPa | 2.6V | 00:00:00 | 01:59:33 | 08:30:00 | |
| DJ2DS-15 | 2026-09-05 00:48:44 | 54.73180 | 0.10606 | 120° | 15km/h | 28253m | 5.4m/s | -46.8°C | 2.9% | 0hPa | 2.6V | 00:00:00 | 01:59:13 | 00:00:00 | |
| DJ2DS-15 | 2026-09-05 00:48:29 | 54.73207 | 0.10509 | 125° | 15km/h | 28165m | 5.4m/s | -46.6°C | 0.4% | -1.0hPa | 2.6V | 00:00:00 | 00:00:00 | 00:00:00 | |
| DJ2DS-15 | 2026-09-05 00:48:24 | 54.73211 | 0.10493 | 162° | 15km/h | 28136m | 6.6m/s | -46.5°C | 2.8% | 0hPa | 2.6V | 00:00:00 | 01:58:53 | 00:00:00 | |
| DJ2DS-15 | 2026-09-05 00:48:04 | 54.73248 | 0.10391 | 95° | 15km/h | 28018m | 4.1m/s | -47.2°C | 2.9% | 0hPa | 2.6V | 00:00:00 | 01:58:33 | 00:00:00 | |
| DJ2DS-15 | 2026-09-05 00:47:44 | 54.73291 | 0.10303 | 162° | 16km/h | 27901m | 6.6m/s | -47.1°C | 2.8% | 0hPa | 2.6V | 00:00:00 | 01:58:13 | 00:00:00 | |
| DJ2DS-15 | 2026-09-05 00:47:24 | 54.73366 | 0.10249 | 164° | 31km/h | 27781m | 5.9m/s | -47.1°C | 2.9% | 0hPa | 2.6V | 00:00:00 | 01:57:53 | 00:00:00 | |
| BIOWL1-15 | 2026-09-05 00:46:55 | 54.73583 | 0.10118 | 136° | 26km/h | 27597m | 6.8m/s | -47.4°C | 0% | 0hPa | 2.6V | 18:12:15 | 01:57:21 | 00:00:00 | |
| BIOWL1-15 | 2026-09-05 00:46:39 | 54.73668 | 0.10065 | 157° | 33km/h | 27516m | 5.4m/s | -47.2°C | 0% | 0hPa | 2.7V | 18:12:15 | 01:57:08 | 00:00:00 | |
| BIOWL1-15 | 2026-09-05 00:46:28 | 54.73756 | 0.10001 | 145° | 35km/h | 27449m | 6.4m/s | -47.3°C | 0% | 0hPa | 2.7V | 18:12:15 | 01:56:57 | 00:00:00 | |
| BIOWL1-15 | 2026-09-05 00:46:18 | 54.73863 | 0.09901 | 147° | 31km/h | 27355m | 6.4m/s | -47.4°C | 0% | 0hPa | 2.6V | 18:12:15 | 01:56:42 | 00:00:00 | |
| BIOWL1-15 | 2026-09-05 00:46:04 | 54.73922 | 0.09826 | 173° | 38km/h | 27300m | 5.6m/s | -47.3°C | 0% | 0hPa | 2.6V | 18:12:15 | 01:56:33 | 00:00:00 | |
| BIOWL1-15 | 2026-09-05 00:45:52 | 54.74015 | 0.09740 | 161° | 27km/h | 27229m | 5.6m/s | -47.2°C | 0% | 0hPa | 2.6V | 18:12:15 | 01:56:21 | 00:00:00 | |
| BIOWL9-15 | 2026-09-05 00:45:49 | 54.74050 | 0.09730 | 165° | 38km/h | 27205m | 5.9m/s | -47.1°C | 0.5% | -1.0hPa | 2.6V | 00:00:00 | 00:00:00 | 00:00:00 | |
| BIOWL1-15 | 2026-09-05 00:45:41 | 54.74122 | 0.09653 | 159° | 33km/h | 27151m | 6.9m/s | -47°C | 0% | 0hPa | 2.6V | 18:12:15 | 01:56:08 | 00:00:00 | |
| BIOWL1-15 | 2026-09-05 00:45:25 | 54.74232 | 0.09577 | 152° | 35km/h | 27067m | 5.2m/s | -46.7°C | 0% | 0hPa | 2.6V | 18:12:15 | 01:55:54 | 00:00:00 | |
| BIOWL1-15 | 2026-09-05 00:45:13 | 54.74342 | 0.09501 | 150° | 40km/h | 26986m | 5.6m/s | -47.3°C | 0% | 0hPa | 2.6V | 18:12:15 | 01:55:40 | 00:00:00 | |
| BIOWL1-15 | 2026-09-05 00:45:02 | 54.74422 | 0.09414 | 140° | 47km/h | 26934m | 6.9m/s | -47.2°C | 0% | 0hPa | 2.6V | 18:12:15 | 01:55:31 | 00:00:00 | |
| BIOWL1-15 | 2026-09-05 00:44:51 | 54.74554 | 0.09217 | 134° | 40km/h | 26838m | 5.5m/s | -48.2°C | 0% | 0hPa | 2.7V | 18:12:15 | 01:55:15 | 00:00:00 | |
| BIOWL9-15 | 2026-09-05 00:44:47 | 54.74554 | 0.09217 | 133° | 40km/h | 26838m | 5.5m/s | 0°C | -1.0% | -1.0hPa | 2.6V | 00:00:00 | 00:00:00 | 00:00:00 | |
| BIOWL1-15 | 2026-09-05 00:44:38 | 54.74604 | 0.09117 | 130° | 44km/h | 26791m | 6.4m/s | -48.4°C | 0% | 0hPa | 2.6V | 18:12:15 | 01:55:07 | 00:00:00 | |
| BIOWL1-15 | 2026-09-05 00:44:28 | 54.74679 | 0.08843 | 109° | 29km/h | 26684m | 5.9m/s | 0°C | 0% | 0hPa | 2.6V | 18:12:15 | 01:54:48 | 00:00:00 | |
| BIOWL1-15 | 2026-09-05 00:44:21 | 54.74685 | 0.08819 | 119° | 33km/h | 26673m | 5.4m/s | 0°C | 0% | 0hPa | 2.7V | 18:12:15 | 01:54:46 | 00:00:00 | |
| BIOWL1-15 | 2026-09-05 00:44:08 | 54.74701 | 0.08672 | 84° | 22km/h | 26611m | 6.4m/s | 0°C | 0% | 0hPa | 2.6V | 18:12:15 | 01:54:35 | 00:00:00 | |
| BIOWL1-15 | 2026-09-05 00:43:56 | 54.74701 | 0.08556 | 93° | 18km/h | 26555m | 4.9m/s | 0°C | 0% | 0hPa | 2.6V | 18:12:15 | 01:54:25 | 00:00:00 | |
| BIOWL1-15 | 2026-09-05 00:43:46 | 54.74717 | 0.08450 | 97° | 22km/h | 26489m | 5.8m/s | 0°C | 0% | 0hPa | 2.6V | 18:12:15 | 01:54:13 | 00:00:00 | |
| BIOWL1-15 | 2026-09-05 00:43:35 | 54.74752 | 0.08301 | 97° | 22km/h | 26412m | 6.5m/s | 0°C | 0% | 0hPa | 2.6V | 18:12:15 | 01:53:59 | 00:00:00 | |
| BIOWL1-15 | 2026-09-05 00:43:21 | 54.74776 | 0.08169 | 98° | 27km/h | 26350m | 4.9m/s | 0°C | 0% | 0hPa | 2.6V | 18:12:15 | 01:53:48 | 00:00:00 | |
| BIOWL1-15 | 2026-09-05 00:43:11 | 54.74773 | 0.08082 | 88° | 37km/h | 26308m | 4.4m/s | 0°C | 0% | 0hPa | 2.7V | 18:12:15 | 01:53:40 | 00:00:00 | |
| DJ2DS-15 | 2026-09-05 00:43:02 | 54.74782 | 0.07954 | 95° | 24km/h | 26260m | 6.5m/s | -50.2°C | 3.4% | 0hPa | 2.6V | 00:00:00 | 01:53:31 | 08:30:00 | |
| DJ2DS-15 | 2026-09-05 00:42:42 | 54.74761 | 0.07755 | 80° | 18km/h | 26148m | 5.6m/s | -50.0°C | 3.2% | 0hPa | 2.7V | 00:00:00 | 01:53:11 | 00:00:00 | |
| DJ2DS-15 | 2026-09-05 00:42:22 | 54.74732 | 0.07610 | 99° | 11km/h | 26041m | 4.5m/s | -50.0°C | 3.3% | 0hPa | 2.7V | 00:00:00 | 01:52:51 | 00:00:00 | |
| DJ2DS-15 | 2026-09-05 00:42:02 | 54.74732 | 0.07530 | 170° | 13km/h | 25930m | 5.2m/s | -49.8°C | 3.3% | 0hPa | 2.7V | 00:00:00 | 01:52:31 | 00:00:00 | |
| DJ2DS-15 | 2026-09-05 00:41:42 | 54.74796 | 0.07471 | 159° | 22km/h | 25819m | 6.0m/s | -49.6°C | 3.3% | 0hPa | 2.6V | 00:00:00 | 01:52:11 | 00:00:00 | |
| DJ2DS-15 | 2026-09-05 00:41:22 | 54.74888 | 0.07382 | 148° | 24km/h | 25704m | 4.6m/s | -49.4°C | 3.2% | 0hPa | 2.6V | 00:00:00 | 01:51:51 | 00:00:00 | |
| DJ2DS-15 | 2026-09-05 00:41:02 | 54.74958 | 0.07223 | 136° | 29km/h | 25589m | 6.1m/s | -49.0°C | 3.1% | 0hPa | 2.6V | 00:00:00 | 01:51:31 | 00:00:00 | |
| DJ2DS-15 | 2026-09-05 00:40:42 | 54.75031 | 0.07010 | 110° | 31km/h | 25481m | 5.5m/s | -49.6°C | 3.2% | 0hPa | 2.7V | 00:00:00 | 01:51:11 | 00:00:00 | |
| DJ2DS-15 | 2026-09-05 00:40:22 | 54.75099 | 0.06761 | 108° | 26km/h | 25365m | 4.7m/s | -50.3°C | 3.3% | 0hPa | 2.7V | 00:00:00 | 01:50:51 | 00:00:00 | |
| DJ2DS-15 | 2026-09-05 00:40:04 | 54.75122 | 0.06566 | 101° | 22km/h | 25265m | 5.6m/s | -50.5°C | 0.6% | -1.0hPa | 2.7V | 00:00:00 | 00:00:00 | 00:00:00 | |
| DJ2DS-15 | 2026-09-05 00:40:01 | 54.75121 | 0.06536 | 73° | 18km/h | 25249m | 6.7m/s | -50.6°C | 3.4% | 0hPa | 2.7V | 00:00:00 | 01:50:30 | 08:30:00 | |
| DJ2DS-15 | 2026-09-05 00:39:41 | 54.75060 | 0.06418 | 9° | 11km/h | 25136m | 4.8m/s | -50.3°C | 3.4% | 0hPa | 2.7V | 00:00:00 | 01:50:10 | 00:00:00 | |
| DJ2DS-15 | 2026-09-05 00:39:28 | 54.75034 | 0.06378 | 347° | 0km/h | 25063m | 4.3m/s | -50.0°C | 0.6% | -1.0hPa | 2.7V | 00:00:00 | 00:00:00 | 00:00:00 | |
| DJ2DS-15 | 2026-09-05 00:39:20 | 54.75009 | 0.06387 | 6° | 5km/h | 25017m | 4.7m/s | -49.9°C | 3.3% | 0hPa | 2.7V | 00:00:00 | 01:49:49 | 00:00:00 | |
| DJ2DS-15 | 2026-09-05 00:38:52 | 54.74984 | 0.06342 | 64° | 7km/h | 24860m | 6.4m/s | -49.8°C | 0.6% | -1.0hPa | 2.7V | 00:00:00 | 00:00:00 | 00:00:00 | |
| DJ2DS-15 | 2026-09-05 00:38:40 | 54.74982 | 0.06284 | 94° | 20km/h | 24794m | 6.0m/s | -50.0°C | 3.3% | 0hPa | 2.7V | 00:00:00 | 01:49:09 | 00:00:00 | |
| DJ2DS-15 | 2026-09-05 00:38:20 | 54.74992 | 0.06121 | 98° | 22km/h | 24688m | 6.6m/s | -50.1°C | 3.3% | 0hPa | 2.7V | 00:00:00 | 01:48:49 | 00:00:00 | |
| DJ2DS-15 | 2026-09-05 00:38:00 | 54.74987 | 0.05935 | 100° | 20km/h | 24579m | 4.6m/s | -49.6°C | 3.2% | 0hPa | 2.7V | 00:00:00 | 01:48:29 | 00:00:00 | |
| DJ2DS-15 | 2026-09-05 00:37:40 | 54.74982 | 0.05759 | 91° | 13km/h | 24474m | 4.7m/s | -49.5°C | 3.1% | 0hPa | 2.6V | 00:00:00 | 01:48:09 | 00:00:00 | |
| DJ2DS-15 | 2026-09-05 00:37:20 | 54.74982 | 0.05652 | 122° | 16km/h | 24363m | 6.4m/s | -50.9°C | 3.5% | 0hPa | 2.6V | 00:00:00 | 01:47:49 | 00:00:00 | |
| DJ2DS-15 | 2026-09-05 00:37:00 | 54.75038 | 0.05544 | 139° | 27km/h | 24254m | 4.7m/s | -50.6°C | 3.3% | 0hPa | 2.6V | 00:00:00 | 01:47:29 | 08:30:00 | |
| DJ2DS-15 | 2026-09-05 00:36:40 | 54.75132 | 0.05381 | 121° | 35km/h | 24145m | 4.5m/s | -50.9°C | 3.4% | 0hPa | 2.6V | 00:00:00 | 01:47:09 | 00:00:00 | |
| DJ2DS-15 | 2026-09-05 00:36:20 | 54.75239 | 0.05151 | 141° | 29km/h | 24036m | 5.7m/s | -50.8°C | 3.5% | 0hPa | 2.6V | 00:00:00 | 01:46:49 | 00:00:00 | |
| DJ2DS-15 | 2026-09-05 00:35:52 | 54.75370 | 0.04836 | 100° | 40km/h | 23876m | 3.7m/s | -50.8°C | 0.6% | -1.0hPa | 2.6V | 00:00:00 | 00:00:00 | 00:00:00 | |
| DJ2DS-15 | 2026-09-05 00:35:40 | 54.75401 | 0.04668 | 104° | 38km/h | 23816m | 6.5m/s | -50.6°C | 3.3% | 0hPa | 2.6V | 00:00:00 | 01:46:09 | 00:00:00 | |
| DJ2DS-15 | 2026-09-05 00:35:20 | 54.75430 | 0.04339 | 79° | 33km/h | 23707m | 4.3m/s | -50.3°C | 3.3% | 0hPa | 2.6V | 00:00:00 | 01:45:49 | 00:00:00 | |
| DJ2DS-15 | 2026-09-05 00:35:15 | 54.75429 | 0.04260 | 97° | 33km/h | 23680m | 6.1m/s | -50.5°C | 0.6% | -1.0hPa | 2.6V | 00:00:00 | 00:00:00 | 00:00:00 | |
| DJ2DS-15 | 2026-09-05 00:35:00 | 54.75425 | 0.04059 | 76° | 24km/h | 23595m | 5.0m/s | -50.6°C | 3.3% | 0hPa | 2.6V | 00:00:00 | 01:45:29 | 00:00:00 | |
| DJ2DS-15 | 2026-09-05 00:34:40 | 54.75390 | 0.03856 | 65° | 18km/h | 23482m | 6.3m/s | -50.8°C | 3.4% | 0hPa | 2.6V | 00:00:00 | 01:45:09 | 00:00:00 | |
| DJ2DS-15 | 2026-09-05 00:34:20 | 54.75332 | 0.03743 | 62° | 9km/h | 23370m | 5.2m/s | -50.7°C | 3.5% | 0hPa | 2.6V | 00:00:00 | 01:44:49 | 00:00:00 | |
| DJ2DS-15 | 2026-09-05 00:34:00 | 54.75305 | 0.03678 | 85° | 9km/h | 23259m | 4.6m/s | -50.5°C | 3.3% | 0hPa | 2.6V | 00:00:00 | 01:44:29 | 08:30:00 | |
| DJ2DS-15 | 2026-09-05 00:33:27 | 54.75334 | 0.03547 | 62° | 11km/h | 23080m | 5.8m/s | -51.0°C | 0.6% | -1.0hPa | 2.6V | 00:00:00 | 00:00:00 | 00:00:00 | |
| DJ2DS-15 | 2026-09-05 00:33:20 | 54.75332 | 0.03525 | 72° | 7km/h | 23043m | 5.1m/s | -51.1°C | 3.4% | 0hPa | 2.6V | 00:00:00 | 01:43:49 | 00:00:00 | |
| DJ2DS-15 | 2026-09-05 00:32:51 | 54.75295 | 0.03534 | 203° | 0km/h | 22886m | 6.2m/s | -51.0°C | 0.7% | -1.0hPa | 2.6V | 00:00:00 | 00:00:00 | 00:00:00 | |
| DJ2DS-15 | 2026-09-05 00:32:40 | 54.75304 | 0.03550 | 239° | 9km/h | 22827m | 5.5m/s | -50.5°C | 3.5% | 0hPa | 2.6V | 00:00:00 | 01:43:09 | 00:00:00 | |
| DJ2DS-15 | 2026-09-05 00:32:17 | 54.75332 | 0.03574 | 215° | 9km/h | 22699m | 6.7m/s | -49.8°C | 3.2% | 0hPa | 2.6V | 00:00:00 | 01:42:46 | 00:00:00 | |
| DJ2DS-15 | 2026-09-05 00:31:57 | 54.75366 | 0.03579 | 195° | 18km/h | 22588m | 4.6m/s | -50.7°C | 3.3% | 0hPa | 2.6V | 00:00:00 | 01:42:26 | 00:00:00 | |
| DJ2DS-15 | 2026-09-05 00:31:37 | 54.75425 | 0.03469 | 125° | 31km/h | 22486m | 4.7m/s | -50.6°C | 3.3% | 0hPa | 2.7V | 00:00:00 | 01:42:06 | 00:00:00 | |
| DJ2DS-15 | 2026-09-05 00:31:17 | 54.75501 | 0.03234 | 118° | 42km/h | 22388m | 6.1m/s | -51.1°C | 3.3% | 0hPa | 2.7V | 00:00:00 | 01:41:46 | 00:00:00 | |
| DJ2DS-15 | 2026-09-05 00:30:57 | 54.75576 | 0.02893 | 117° | 49km/h | 22296m | 4.6m/s | -52.5°C | 3.7% | 0hPa | 2.7V | 00:00:00 | 01:41:26 | 08:30:00 | |
| DJ2DS-15 | 2026-09-05 00:30:37 | 54.75581 | 0.02467 | 91° | 40km/h | 22204m | 4.7m/s | -52.3°C | 3.7% | 0hPa | 2.7V | 00:00:00 | 01:41:06 | 00:00:00 | |
| DJ2DS-15 | 2026-09-05 00:30:17 | 54.75573 | 0.02107 | 92° | 33km/h | 22107m | 4.9m/s | -51.8°C | 3.6% | 0hPa | 2.7V | 00:00:00 | 01:40:46 | 00:00:00 | |
| DJ2DS-15 | 2026-09-05 00:29:57 | 54.75541 | 0.01823 | 78° | 24km/h | 22000m | 5.2m/s | -51.3°C | 3.5% | 0hPa | 2.7V | 00:00:00 | 01:40:26 | 00:00:00 | |
| DJ2DS-15 | 2026-09-05 00:29:37 | 54.75528 | 0.01613 | 96° | 22km/h | 21890m | 5.6m/s | -50.7°C | 3.4% | 0hPa | 2.6V | 00:00:00 | 01:40:06 | 00:00:00 | |
| DJ2DS-15 | 2026-09-05 00:29:17 | 54.75561 | 0.01436 | 160° | 22km/h | 21774m | 5.1m/s | -51.3°C | 3.4% | 0hPa | 2.6V | 00:00:00 | 01:39:46 | 00:00:00 | |
| DJ2DS-15 | 2026-09-05 00:29:15 | 54.75576 | 0.01426 | 151° | 22km/h | 21756m | 5.4m/s | -51.3°C | 0.7% | -1.0hPa | 2.6V | 00:00:00 | 00:00:00 | 00:00:00 | |
| DJ2DS-15 | 2026-09-05 00:28:57 | 54.75630 | 0.01300 | 122° | 27km/h | 21658m | 5.8m/s | -51.2°C | 3.4% | 0hPa | 2.6V | 00:00:00 | 01:39:26 | 00:00:00 | |
| DJ2DS-15 | 2026-09-05 00:28:39 | 54.75644 | 0.01080 | 81° | 31km/h | 21550m | 4.9m/s | -52.4°C | 0.7% | -1.0hPa | 2.6V | 00:00:00 | 00:00:00 | 00:00:00 | |
| DJ2DS-15 | 2026-09-05 00:28:37 | 54.75642 | 0.01066 | 75° | 27km/h | 21544m | 6.3m/s | -52.4°C | 3.6% | 0hPa | 2.6V | 00:00:00 | 01:39:06 | 00:00:00 | |
| DJ2DS-15 | 2026-09-05 00:28:17 | 54.75587 | 0.00842 | 70° | 18km/h | 21438m | 5.4m/s | -52.4°C | 3.6% | 0hPa | 2.6V | 00:00:00 | 01:38:46 | 00:00:00 | |
| DJ2DS-15 | 2026-09-05 00:28:03 | 54.75592 | 0.00730 | 104° | 18km/h | 21356m | 6.6m/s | -53.3°C | 0.8% | -1.0hPa | 2.6V | 00:00:00 | 00:00:00 | 00:00:00 | |
| DJ2DS-15 | 2026-09-05 00:27:57 | 54.75597 | 0.00695 | 94° | 24km/h | 21328m | 5.7m/s | -53.6°C | 3.9% | 0hPa | 2.6V | 00:00:00 | 01:38:26 | 08:30:00 | |
| DJ2DS-15 | 2026-09-05 00:27:37 | 54.75635 | 0.00491 | 111° | 27km/h | 21222m | 5.0m/s | -53.2°C | 3.9% | 0hPa | 2.6V | 00:00:00 | 01:38:06 | 00:00:00 | |
| DJ2DS-15 | 2026-09-05 00:27:17 | 54.75688 | 0.00261 | 111° | 18km/h | 21112m | 4.9m/s | -52.6°C | 3.8% | 0hPa | 2.6V | 00:00:00 | 01:37:46 | 00:00:00 | |
| DJ2DS-15 | 2026-09-05 00:26:50 | 54.75730 | 0.00056 | 118° | 16km/h | 20962m | 5.4m/s | -51.8°C | 0.7% | -1.0hPa | 2.6V | 00:00:00 | 00:00:00 | 00:00:00 | |
| DJ2DS-15 | 2026-09-05 00:26:37 | 54.75771 | -0.00035 | 128° | 22km/h | 20889m | 4.5m/s | -51.1°C | 3.6% | 0hPa | 2.6V | 00:00:00 | 01:37:06 | 00:00:00 | |
| DJ2DS-15 | 2026-09-05 00:26:17 | 54.75830 | -0.00203 | 119° | 27km/h | 20779m | 6.3m/s | -50.2°C | 3.3% | 0hPa | 2.6V | 00:00:00 | 01:36:46 | 00:00:00 | |
| DJ2DS-15 | 2026-09-05 00:25:57 | 54.75881 | -0.00424 | 83° | 37km/h | 20669m | 4.1m/s | -50.7°C | 3.4% | 0hPa | 2.6V | 00:00:00 | 01:36:26 | 00:00:00 | |
| DJ2DS-15 | 2026-09-05 00:25:36 | 54.75923 | -0.00744 | 104° | 49km/h | 20555m | 5.7m/s | -50.8°C | 3.2% | 0hPa | 2.6V | 00:00:00 | 01:36:05 | 00:00:00 | |
| DJ2DS-15 | 2026-09-05 00:25:16 | 54.75961 | -0.01167 | 95° | 51km/h | 20455m | 4.5m/s | -52.8°C | 3.7% | 0hPa | 2.6V | 00:00:00 | 01:35:45 | 00:00:00 | |
| DJ2DS-15 | 2026-09-05 00:24:56 | 54.75938 | -0.01609 | 82° | 51km/h | 20359m | 4.5m/s | -53.1°C | 3.9% | 0hPa | 2.6V | 00:00:00 | 01:35:25 | 08:30:00 | |
| DJ2DS-15 | 2026-09-05 00:24:36 | 54.75919 | -0.02058 | 92° | 55km/h | 20262m | 5.2m/s | -52.8°C | 3.7% | 0hPa | 2.7V | 00:00:00 | 01:35:05 | 00:00:00 | |
| DJ2DS-15 | 2026-09-05 00:24:16 | 54.75871 | -0.02521 | 74° | 58km/h | 20160m | 6.0m/s | -52.8°C | 3.8% | 0hPa | 2.7V | 00:00:00 | 01:34:45 | 00:00:00 | |
| DJ2DS-15 | 2026-09-05 00:23:50 | 54.75784 | -0.03172 | 87° | 64km/h | 20017m | 4.5m/s | -51.9°C | 0.8% | -1.0hPa | 2.7V | 00:00:00 | 00:00:00 | 00:00:00 | |
| DJ2DS-15 | 2026-09-05 00:23:36 | 54.75753 | -0.03551 | 83° | 60km/h | 19939m | 5.4m/s | -51.3°C | 3.5% | 0hPa | 2.7V | 00:00:00 | 01:34:05 | 00:00:00 | |
| DJ2DS-15 | 2026-09-05 00:23:16 | 54.75700 | -0.04060 | 87° | 51km/h | 19825m | 7.2m/s | -51.5°C | 3.4% | 0hPa | 2.7V | 00:00:00 | 01:33:45 | 00:00:00 | |
| DJ2DS-15 | 2026-09-05 00:23:14 | 54.75699 | -0.04106 | 84° | 51km/h | 19812m | 5.9m/s | -51.6°C | 0.7% | -1.0hPa | 2.7V | 00:00:00 | 00:00:00 | 00:00:00 | |
| DJ2DS-15 | 2026-09-05 00:22:56 | 54.75624 | -0.04478 | 59° | 47km/h | 19709m | 5.3m/s | -52.3°C | 3.4% | 0hPa | 2.7V | 00:00:00 | 01:33:25 | 00:00:00 | |
| DJ2DS-15 | 2026-09-05 00:22:38 | 54.75501 | -0.04794 | 52° | 42km/h | 19612m | 6.0m/s | -53.6°C | 0.8% | -1.0hPa | 2.6V | 00:00:00 | 00:00:00 | 00:00:00 | |
| DJ2DS-15 | 2026-09-05 00:22:36 | 54.75488 | -0.04824 | 51° | 38km/h | 19602m | 4.7m/s | -53.6°C | 3.9% | 0hPa | 2.6V | 00:00:00 | 01:33:05 | 00:00:00 | |
| DJ2DS-15 | 2026-09-05 00:22:02 | 54.75357 | -0.05256 | 76° | 27km/h | 19414m | 6.4m/s | -52.6°C | 0.8% | -1.0hPa | 2.6V | 00:00:00 | 00:00:00 | 00:00:00 | |
| DJ2DS-15 | 2026-09-05 00:22:01 | 54.75357 | -0.05256 | 77° | 29km/h | 19415m | 6.3m/s | -52.5°C | 3.8% | 0hPa | 2.6V | 00:00:00 | 01:32:30 | 00:00:00 | |
| DJ2DS-15 | 2026-09-05 00:21:40 | 54.75342 | -0.05535 | 80° | 35km/h | 19299m | 4.8m/s | -51.5°C | 3.6% | 0hPa | 2.6V | 00:00:00 | 01:32:09 | 08:30:00 | |
| DJ2DS-15 | 2026-09-05 00:21:26 | 54.75342 | -0.05744 | 88° | 31km/h | 19219m | 6.2m/s | -51.1°C | 0.7% | -1.0hPa | 2.6V | 00:00:00 | 00:00:00 | 00:00:00 | |
| DJ2DS-15 | 2026-09-05 00:21:17 | 54.75351 | -0.05869 | 102° | 42km/h | 19176m | 5.5m/s | -50.9°C | 3.5% | 0hPa | 2.6V | 00:00:00 | 01:31:46 | 00:00:00 | |
| DJ2DS-15 | 2026-09-05 00:20:50 | 54.75441 | -0.06344 | 107° | 42km/h | 19019m | 6.3m/s | -51.0°C | 0.7% | -1.0hPa | 2.6V | 00:00:00 | 00:00:00 | 00:00:00 | |
| DJ2DS-15 | 2026-09-05 00:20:37 | 54.75486 | -0.06590 | 116° | 55km/h | 18953m | 6.0m/s | -50.9°C | 3.4% | 0hPa | 2.6V | 00:00:00 | 01:31:06 | 00:00:00 | |
| DJ2DS-15 | 2026-09-05 00:20:17 | 54.75627 | -0.06980 | 131° | 51km/h | 18833m | 4.5m/s | 0°C | 0% | 0hPa | 0V | 00:00:00 | 01:30:46 | 00:00:00 | |
| DJ2DS-15 | 2026-09-05 00:20:13 | 54.75659 | -0.07045 | 124° | 46km/h | 18810m | 7.1m/s | -50.8°C | 0.7% | -1.0hPa | 0V | 00:00:00 | 00:00:00 | 00:00:00 | |
| DJ2DS-15 | 2026-09-05 00:19:57 | 54.75795 | -0.07311 | 127° | 57km/h | 18719m | 7.0m/s | 0°C | 0% | 0hPa | 0V | 00:00:00 | 01:30:26 | 00:00:00 | |
| DJ2DS-15 | 2026-09-05 00:19:37 | 54.75934 | -0.07746 | 112° | 66km/h | 18596m | 6.5m/s | 0°C | 0% | 0hPa | 0V | 00:00:00 | 01:30:06 | 00:00:00 | |
| DJ2DS-15 | 2026-09-05 00:19:17 | 54.76023 | -0.08307 | 94° | 78km/h | 18475m | 5.9m/s | 0°C | 0% | 0hPa | 0V | 00:00:00 | 01:29:46 | 00:00:00 | |
| DJ2DS-15 | 2026-09-05 00:19:01 | 54.76043 | -0.08861 | 93° | 75km/h | 18377m | 5.8m/s | -51.4°C | 0.8% | -1.0hPa | 0V | 00:00:00 | 00:00:00 | 00:00:00 | |
| DJ2DS-15 | 2026-09-05 00:18:57 | 54.76050 | -0.08990 | 94° | 68km/h | 18354m | 6.5m/s | 0°C | 0% | 0hPa | 0V | 00:00:00 | 01:29:26 | 00:00:00 | |
| DJ2DS-15 | 2026-09-05 00:18:25 | 54.76144 | -0.09930 | 102° | 58km/h | 18189m | 4.6m/s | -50.2°C | 0.7% | -1.0hPa | 0V | 00:00:00 | 00:00:00 | 00:00:00 | |
| DJ2DS-15 | 2026-09-05 00:17:49 | 54.76286 | -0.10787 | 110° | 46km/h | 18025m | 5.0m/s | -49.6°C | 0.7% | -1.0hPa | 0V | 00:00:00 | 00:00:00 | 00:00:00 | |
| DJ2DS-15 | 2026-09-05 00:17:13 | 54.76479 | -0.11597 | 108° | 57km/h | 17869m | 3.9m/s | -49.8°C | 0.7% | -1.0hPa | 0V | 00:00:00 | 00:00:00 | 00:00:00 | |
| DJ2DS-15 | 2026-09-05 00:16:37 | 54.76591 | -0.12458 | 96° | 58km/h | 17718m | 4.8m/s | -50.0°C | 0.7% | -1.0hPa | 0V | 00:00:00 | 00:00:00 | 00:00:00 |